Time;durP1;ratioP1;P1;durP2;ratioP2;P2;SDS_P1;SDS_P2;PMS_P1;PMS_P2;Temp;Humidity;BMP_temperature;BMP_pressure;BME280_temperature;BME280_humidity;BME280_pressure;Samples;Min_cycle;Max_cycle;Signal;HPM_P1;HPM_P2
2020/12/20 00:01:21;;;;;;;;;;;18.70;99.90;;;;;;5114511;28;19951;-87
2020/12/20 00:03:48;;;;;;;;;;;18.70;99.90;;;;;;5114515;28;20022;-86
2020/12/20 00:06:14;;;;;;;;;;;18.70;99.90;;;;;;5113774;28;19919;-86
2020/12/20 00:08:41;;;;;;;;;;;18.80;99.90;;;;;;5114462;28;20369;-89
2020/12/20 00:11:08;;;;;;;;;;;18.80;99.90;;;;;;5113910;28;20274;-86
2020/12/20 00:13:35;;;;;;;;;;;18.60;99.90;;;;;;5113829;28;19918;-88
2020/12/20 00:16:01;;;;;;;;;;;18.70;99.90;;;;;;5114097;28;19912;-84
2020/12/20 00:18:28;;;;;;;;;;;18.70;99.90;;;;;;5114225;28;19957;-84
2020/12/20 00:20:55;;;;;;;;;;;18.80;99.90;;;;;;5113282;28;19919;-82
2020/12/20 00:23:22;;;;;;;;;;;18.80;99.90;;;;;;5113517;28;19998;-84
2020/12/20 00:25:48;;;;;;;;;;;18.90;99.90;;;;;;5114030;28;19908;-82
2020/12/20 00:28:15;;;;;;;;;;;19.00;99.90;;;;;;5113679;28;19933;-82
2020/12/20 00:30:42;;;;;;;;;;;19.10;99.90;;;;;;5113439;28;19907;-86
2020/12/20 00:33:08;;;;;;;;;;;19.40;99.90;;;;;;5113427;28;19955;-82
2020/12/20 00:35:35;;;;;;;;;;;19.00;99.90;;;;;;5113331;28;19943;-83
2020/12/20 00:38:02;;;;;;;;;;;18.90;99.90;;;;;;5113888;28;19916;-82
2020/12/20 00:40:28;;;;;;;;;;;19.00;99.90;;;;;;5112958;28;19908;-82
2020/12/20 00:42:55;;;;;;;;;;;19.10;99.90;;;;;;5113046;28;19920;-81
2020/12/20 00:45:22;;;;;;;;;;;19.10;99.90;;;;;;5113464;28;19965;-87
2020/12/20 00:47:48;;;;;;;;;;;19.10;99.90;;;;;;5113400;28;19914;-81
2020/12/20 00:50:15;;;;;;;;;;;19.00;99.90;;;;;;5113052;28;19912;-88
2020/12/20 00:52:42;;;;;;;;;;;19.20;99.90;;;;;;5112887;27;19908;-84
2020/12/20 00:55:09;;;;;;;;;;;19.30;99.90;;;;;;5113396;27;19916;-83
2020/12/20 00:57:36;;;;;;;;;;;19.40;99.90;;;;;;5113158;28;19994;-84
2020/12/20 01:00:03;;;;;;;;;;;19.40;99.90;;;;;;5113301;28;19908;-85
2020/12/20 01:02:30;;;;;;;;;;;19.30;99.90;;;;;;5112711;28;19923;-83
2020/12/20 01:04:57;;;;;;;;;;;19.20;99.90;;;;;;5113473;28;20010;-85
2020/12/20 01:07:23;;;;;;;;;;;19.10;99.90;;;;;;5115564;28;19999;-86
2020/12/20 01:09:50;;;;;;;;;;;19.20;99.90;;;;;;5113254;28;19912;-87
2020/12/20 01:12:16;;;;;;;;;;;19.20;99.90;;;;;;5129307;27;19999;-85
2020/12/20 01:14:43;;;;;;;;;;;19.20;99.90;;;;;;5113363;28;19972;-84
2020/12/20 01:17:10;;;;;;;;;;;19.30;99.90;;;;;;5112792;28;20039;-84
2020/12/20 01:19:37;;;;;;;;;;;19.20;99.90;;;;;;5111746;28;19974;-86
2020/12/20 01:22:03;;;;;;;;;;;19.30;99.90;;;;;;5112754;28;20362;-85
2020/12/20 01:24:31;;;;;;;;;;;19.40;99.90;;;;;;5113576;28;20358;-86
2020/12/20 01:26:58;;;;;;;;;;;19.40;99.90;;;;;;5113040;28;20006;-84
2020/12/20 01:29:24;;;;;;;;;;;19.30;99.90;;;;;;5112867;28;19908;-83
2020/12/20 01:31:51;;;;;;;;;;;19.40;99.90;;;;;;5113092;28;20002;-86
2020/12/20 01:34:18;;;;;;;;;;;19.40;99.90;;;;;;5113280;28;19960;-85
2020/12/20 01:36:44;;;;;;;;;;;19.50;99.90;;;;;;5113624;28;19908;-89
2020/12/20 01:39:14;;;;;;;;;;;19.50;99.90;;;;;;5111875;27;19947;-85
2020/12/20 01:41:41;;;;;;;;;;;19.60;99.90;;;;;;5112971;28;19919;-88
2020/12/20 01:44:07;;;;;;;;;;;19.60;99.90;;;;;;5112660;28;19935;-85
2020/12/20 01:46:35;;;;;;;;;;;19.70;99.90;;;;;;5113041;28;19908;-86
2020/12/20 01:49:02;;;;;;;;;;;19.60;99.90;;;;;;5112834;28;19908;-86
2020/12/20 01:51:29;;;;;;;;;;;19.60;99.90;;;;;;5112647;28;19961;-85
2020/12/20 01:53:56;;;;;;;;;;;19.70;99.90;;;;;;5116567;28;20358;-86
2020/12/20 01:56:22;;;;;;;;;;;19.70;99.90;;;;;;5116693;28;19908;-85
2020/12/20 01:58:50;;;;;;;;;;;19.70;99.90;;;;;;5117793;27;19947;-85
2020/12/20 02:01:16;;;;;;;;;;;19.70;99.90;;;;;;5136910;27;20277;-86
2020/12/20 02:03:43;;;;;;;;;;;19.80;99.90;;;;;;5126901;27;19946;-87
2020/12/20 02:06:14;;;;;;;;;;;19.80;99.90;;;;;;5116752;28;19930;-86
2020/12/20 02:08:40;;;;;;;;;;;19.90;99.90;;;;;;5107921;28;19912;-86
2020/12/20 02:11:08;;;;;;;;;;;19.90;99.90;;;;;;5115032;27;19918;-87
2020/12/20 02:13:34;;;;;;;;;;;20.00;99.90;;;;;;5119365;27;19923;-85
2020/12/20 02:16:02;;;;;;;;;;;20.10;99.90;;;;;;5126895;27;20315;-86
2020/12/20 02:18:28;;;;;;;;;;;20.30;99.90;;;;;;5108807;28;19908;-87
2020/12/20 02:20:55;;;;;;;;;;;20.40;99.90;;;;;;5101762;28;20262;-86
2020/12/20 02:23:22;;;;;;;;;;;20.50;99.90;;;;;;5112376;28;19909;-87
2020/12/20 02:25:51;;;;;;;;;;;20.60;99.90;;;;;;5100048;28;19915;-85
2020/12/20 02:28:21;;;;;;;;;;;20.60;99.90;;;;;;5113111;28;19930;-86
2020/12/20 02:30:48;;;;;;;;;;;20.60;99.90;;;;;;5114797;28;20002;-86
2020/12/20 02:33:15;;;;;;;;;;;20.80;99.90;;;;;;5115518;28;19912;-86
2020/12/20 02:35:45;;;;;;;;;;;20.80;98.60;;;;;;5116124;28;19977;-85
2020/12/20 02:38:11;;;;;;;;;;;20.80;99.00;;;;;;5115871;28;19999;-86
2020/12/20 02:40:39;;;;;;;;;;;20.90;99.20;;;;;;5115085;28;19998;-85
2020/12/20 02:43:06;;;;;;;;;;;20.90;99.10;;;;;;5112292;28;19915;-85
2020/12/20 02:45:33;;;;;;;;;;;20.90;99.50;;;;;;5124846;27;20366;-85
2020/12/20 02:48:00;;;;;;;;;;;20.90;99.90;;;;;;5115479;27;19951;-87
2020/12/20 02:50:26;;;;;;;;;;;21.00;99.70;;;;;;5113790;28;19916;-87
2020/12/20 02:52:53;;;;;;;;;;;21.10;98.70;;;;;;5114620;28;19911;-87
2020/12/20 02:55:20;;;;;;;;;;;21.20;98.30;;;;;;5115442;28;19911;-87
2020/12/20 02:57:47;;;;;;;;;;;21.20;98.50;;;;;;5115662;27;19920;-88
2020/12/20 03:00:13;;;;;;;;;;;21.20;99.10;;;;;;5115577;28;20304;-89
2020/12/20 03:02:40;;;;;;;;;;;21.20;99.20;;;;;;5113627;28;20255;-87
2020/12/20 03:05:07;;;;;;;;;;;21.30;99.00;;;;;;5114493;28;19915;-87
2020/12/20 03:07:33;;;;;;;;;;;21.30;98.70;;;;;;5130038;28;19994;-87
2020/12/20 03:10:00;;;;;;;;;;;21.20;97.90;;;;;;5123458;28;19908;-87
2020/12/20 03:12:27;;;;;;;;;;;21.20;97.70;;;;;;5113129;28;19996;-87
2020/12/20 03:14:53;;;;;;;;;;;21.10;98.20;;;;;;5115014;27;19947;-87
2020/12/20 03:17:20;;;;;;;;;;;21.20;98.50;;;;;;5116421;28;19908;-87
2020/12/20 03:19:48;;;;;;;;;;;21.20;98.00;;;;;;5116019;28;20380;-87
2020/12/20 03:22:15;;;;;;;;;;;21.20;98.30;;;;;;5114992;28;20342;-87
2020/12/20 03:24:42;;;;;;;;;;;21.20;98.60;;;;;;5115300;28;19982;-87
2020/12/20 03:27:09;;;;;;;;;;;21.40;98.70;;;;;;5111189;28;19965;-84
2020/12/20 03:29:38;;;;;;;;;;;21.40;97.80;;;;;;5111560;28;19916;-81
2020/12/20 03:32:05;;;;;;;;;;;21.40;97.90;;;;;;5113836;27;19920;-86
2020/12/20 03:34:32;;;;;;;;;;;21.40;97.90;;;;;;5113679;28;20094;-82
2020/12/20 03:36:58;;;;;;;;;;;21.40;97.20;;;;;;5113502;27;19911;-82
2020/12/20 03:39:25;;;;;;;;;;;21.40;97.10;;;;;;5112740;28;20378;-81
2020/12/20 03:41:52;;;;;;;;;;;21.40;96.70;;;;;;5107117;28;20361;-82
2020/12/20 03:44:19;;;;;;;;;;;21.40;98.00;;;;;;5107276;28;19915;-83
2020/12/20 03:46:45;;;;;;;;;;;21.50;97.30;;;;;;5113729;28;19927;-82
2020/12/20 03:49:12;;;;;;;;;;;21.50;97.30;;;;;;5113148;28;19908;-86
2020/12/20 03:51:39;;;;;;;;;;;21.50;96.60;;;;;;5109931;28;19920;-81
2020/12/20 03:54:07;;;;;;;;;;;21.60;97.30;;;;;;5113131;28;20368;-81
2020/12/20 03:56:34;;;;;;;;;;;21.70;97.20;;;;;;5112979;28;19914;-83
2020/12/20 03:59:01;;;;;;;;;;;21.70;96.70;;;;;;5113309;27;20281;-82
2020/12/20 04:01:27;;;;;;;;;;;21.80;96.70;;;;;;5108685;28;20549;-83
2020/12/20 04:03:54;;;;;;;;;;;21.70;96.40;;;;;;5109139;28;20215;-83
2020/12/20 04:06:21;;;;;;;;;;;21.70;95.70;;;;;;5112265;28;19911;-81
2020/12/20 04:08:47;;;;;;;;;;;21.70;96.30;;;;;;5111084;28;19919;-81
2020/12/20 04:11:14;;;;;;;;;;;21.70;96.40;;;;;;5123551;28;20277;-80
2020/12/20 04:13:41;;;;;;;;;;;21.80;95.90;;;;;;5116152;28;19918;-83
2020/12/20 04:16:14;;;;;;;;;;;21.80;95.60;;;;;;5118949;28;19977;-82
2020/12/20 04:18:41;;;;;;;;;;;21.80;94.90;;;;;;5121960;28;19919;-82
2020/12/20 04:21:07;;;;;;;;;;;21.80;94.90;;;;;;5120479;28;19960;-82
2020/12/20 04:23:34;;;;;;;;;;;21.80;95.90;;;;;;5112920;28;19947;-81
2020/12/20 04:26:01;;;;;;;;;;;21.90;96.70;;;;;;5112712;28;19915;-81
2020/12/20 04:28:27;;;;;;;;;;;22.00;96.90;;;;;;5112950;28;19936;-83
2020/12/20 04:30:54;;;;;;;;;;;22.00;95.20;;;;;;5112226;28;19916;-85
2020/12/20 04:33:21;;;;;;;;;;;22.00;95.90;;;;;;5108932;28;20285;-83
2020/12/20 04:35:47;;;;;;;;;;;21.90;96.80;;;;;;5111470;28;19919;-85
2020/12/20 04:38:14;;;;;;;;;;;22.00;95.90;;;;;;5111500;28;20003;-86
2020/12/20 04:40:41;;;;;;;;;;;22.00;95.40;;;;;;5110992;28;19916;-83
2020/12/20 04:43:09;;;;;;;;;;;22.00;94.40;;;;;;5108312;28;19912;-83
2020/12/20 04:45:36;;;;;;;;;;;22.00;95.30;;;;;;5111869;28;19916;-82
2020/12/20 04:48:03;;;;;;;;;;;22.00;95.20;;;;;;5112256;27;20010;-82
2020/12/20 04:50:30;;;;;;;;;;;22.00;95.00;;;;;;5116949;27;19911;-84
2020/12/20 04:52:58;;;;;;;;;;;21.90;95.60;;;;;;5112011;28;19908;-81
2020/12/20 04:55:26;;;;;;;;;;;22.00;96.10;;;;;;5111560;28;19916;-83
2020/12/20 04:57:53;;;;;;;;;;;22.00;96.30;;;;;;5113113;28;20354;-80
2020/12/20 05:00:20;;;;;;;;;;;22.10;95.40;;;;;;5112446;28;20297;-84
2020/12/20 05:02:47;;;;;;;;;;;22.00;95.30;;;;;;5111844;28;19942;-85
2020/12/20 05:05:14;;;;;;;;;;;22.00;95.50;;;;;;5112667;28;19957;-81
2020/12/20 05:07:44;;;;;;;;;;;21.90;95.20;;;;;;5106979;28;20023;-81
2020/12/20 05:10:10;;;;;;;;;;;21.90;95.00;;;;;;5112648;28;19908;-83
2020/12/20 05:12:38;;;;;;;;;;;21.90;94.40;;;;;;5111927;27;19916;-82
2020/12/20 05:15:24;;;;;;;;;;;21.80;93.60;;;;;;5110849;28;19967;-80
2020/12/20 05:18:07;;;;;;;;;;;21.80;94.20;;;;;;5110554;28;19933;-82
2020/12/20 05:20:35;;;;;;;;;;;21.70;94.70;;;;;;5111516;28;20370;-83
2020/12/20 05:23:02;;;;;;;;;;;21.70;94.20;;;;;;5110574;28;19951;-82
2020/12/20 05:25:30;;;;;;;;;;;21.70;94.60;;;;;;5110171;28;19911;-82
2020/12/20 05:28:07;;;;;;;;;;;21.70;94.00;;;;;;5114658;28;19946;-82
2020/12/20 05:30:36;;;;;;;;;;;21.70;94.60;;;;;;5116323;28;20424;-82
2020/12/20 05:33:03;;;;;;;;;;;21.70;94.60;;;;;;5115454;28;19938;-82
2020/12/20 05:35:30;;;;;;;;;;;21.70;94.90;;;;;;5116005;27;20006;-81
2020/12/20 05:37:57;;;;;;;;;;;21.70;95.50;;;;;;5120592;27;20002;-82
2020/12/20 05:40:26;;;;;;;;;;;21.70;95.40;;;;;;5114619;28;19934;-81
2020/12/20 05:42:54;;;;;;;;;;;21.80;95.40;;;;;;5102332;28;20277;-81
2020/12/20 05:45:23;;;;;;;;;;;21.70;95.20;;;;;;5115337;28;20402;-82
2020/12/20 05:47:50;;;;;;;;;;;21.70;95.70;;;;;;5116771;28;19915;-82
2020/12/20 05:50:17;;;;;;;;;;;21.70;95.70;;;;;;5116947;28;19908;-82
2020/12/20 05:52:43;;;;;;;;;;;21.60;96.30;;;;;;5116185;28;19911;-83
2020/12/20 05:55:14;;;;;;;;;;;21.70;97.20;;;;;;5116802;28;19920;-82
2020/12/20 05:57:40;;;;;;;;;;;21.60;96.90;;;;;;5116139;28;19907;-82
2020/12/20 06:00:07;;;;;;;;;;;21.70;96.30;;;;;;5116167;28;19930;-82
2020/12/20 06:02:35;;;;;;;;;;;21.60;96.10;;;;;;5114626;28;20374;-82
2020/12/20 06:05:02;;;;;;;;;;;21.60;96.30;;;;;;5111332;28;20082;-87
2020/12/20 06:07:29;;;;;;;;;;;21.70;96.20;;;;;;5115950;28;19907;-83
2020/12/20 06:09:56;;;;;;;;;;;21.70;96.10;;;;;;5116767;28;19964;-86
2020/12/20 06:12:24;;;;;;;;;;;21.60;95.90;;;;;;5116422;27;20002;-84
2020/12/20 06:14:51;;;;;;;;;;;21.70;96.10;;;;;;5116948;27;19916;-83
2020/12/20 06:17:18;;;;;;;;;;;21.70;96.60;;;;;;5117160;28;19911;-82
2020/12/20 06:19:57;;;;;;;;;;;21.70;96.00;;;;;;5116857;27;19973;-83
2020/12/20 06:22:28;;;;;;;;;;;21.80;96.50;;;;;;5114319;28;19931;-82
2020/12/20 06:24:56;;;;;;;;;;;21.80;96.20;;;;;;5115718;28;19912;-83
2020/12/20 06:27:23;;;;;;;;;;;21.80;95.90;;;;;;5116304;27;19919;-80
2020/12/20 06:29:51;;;;;;;;;;;21.80;96.10;;;;;;5116643;28;19911;-84
2020/12/20 06:32:21;;;;;;;;;;;21.90;96.20;;;;;;5122733;27;19907;-80
2020/12/20 06:34:47;;;;;;;;;;;21.90;96.20;;;;;;5136043;28;19950;-80
2020/12/20 06:37:17;;;;;;;;;;;21.90;96.00;;;;;;5114486;27;19908;-80
2020/12/20 06:39:43;;;;;;;;;;;21.80;95.20;;;;;;5113305;28;19915;-84
2020/12/20 06:42:10;;;;;;;;;;;21.80;94.60;;;;;;5113263;28;20002;-83
2020/12/20 06:44:37;;;;;;;;;;;21.80;94.80;;;;;;5114128;28;19933;-81
2020/12/20 06:47:04;;;;;;;;;;;21.80;94.30;;;;;;5113791;28;19911;-82
2020/12/20 06:49:37;;;;;;;;;;;21.70;94.40;;;;;;5113126;28;19911;-82
2020/12/20 06:52:19;;;;;;;;;;;21.70;94.90;;;;;;5113358;28;19941;-81
2020/12/20 06:55:04;;;;;;;;;;;21.70;95.60;;;;;;5113577;27;19931;-80
2020/12/20 06:57:31;;;;;;;;;;;21.70;95.50;;;;;;5113784;28;19919;-81
2020/12/20 06:59:58;;;;;;;;;;;21.70;96.00;;;;;;5113439;28;20373;-84
2020/12/20 07:02:59;;;;;;;;;;;21.70;96.00;;;;;;5112522;27;19972;-80
2020/12/20 07:05:35;;;;;;;;;;;21.70;95.60;;;;;;5090316;28;20278;-83
2020/12/20 07:08:07;;;;;;;;;;;21.70;95.80;;;;;;5111380;28;19938;-83
2020/12/20 07:10:43;;;;;;;;;;;21.60;95.90;;;;;;5095800;28;20465;-84
2020/12/20 07:13:11;;;;;;;;;;;21.50;95.90;;;;;;5113525;28;19911;-82
2020/12/20 07:15:44;;;;;;;;;;;21.40;95.70;;;;;;5111709;28;19931;-82
2020/12/20 07:18:11;;;;;;;;;;;21.40;95.80;;;;;;5111992;28;19911;-83
2020/12/20 07:20:38;;;;;;;;;;;21.40;95.70;;;;;;5111313;28;19951;-82
2020/12/20 07:23:05;;;;;;;;;;;21.30;95.70;;;;;;5113074;27;19951;-83
2020/12/20 07:25:31;;;;;;;;;;;21.30;95.90;;;;;;5112572;28;19962;-83
2020/12/20 07:27:58;;;;;;;;;;;21.30;96.20;;;;;;5113119;28;20004;-82
2020/12/20 07:30:25;;;;;;;;;;;21.30;96.50;;;;;;5112491;28;19908;-83
2020/12/20 07:32:51;;;;;;;;;;;21.40;96.40;;;;;;5114078;28;19929;-82
2020/12/20 07:35:18;;;;;;;;;;;21.40;96.70;;;;;;5112485;28;19961;-84
2020/12/20 07:37:52;;;;;;;;;;;21.30;97.00;;;;;;5112915;28;19951;-83
2020/12/20 07:40:19;;;;;;;;;;;21.40;96.70;;;;;;5111049;28;19912;-86
2020/12/20 07:42:45;;;;;;;;;;;21.40;96.50;;;;;;5112301;28;19915;-85
2020/12/20 07:45:13;;;;;;;;;;;21.40;96.50;;;;;;5101287;28;19920;-83
2020/12/20 07:47:39;;;;;;;;;;;21.30;96.50;;;;;;5126047;28;19907;-81
2020/12/20 07:50:06;;;;;;;;;;;21.20;96.80;;;;;;5125477;28;19923;-84
2020/12/20 07:52:33;;;;;;;;;;;21.20;96.70;;;;;;5110871;28;20480;-81
2020/12/20 07:55:00;;;;;;;;;;;21.20;96.80;;;;;;5112815;28;19999;-81
2020/12/20 07:57:28;;;;;;;;;;;21.10;96.80;;;;;;5111041;28;19923;-83
2020/12/20 08:00:44;;;;;;;;;;;;;;;;;;;;;
2020/12/20 08:03:34;;;;;;;;;;;21.10;97.10;;;;;;5109378;27;19927;-93
2020/12/20 08:06:46;;;;;;;;;;;21.10;97.00;;;;;;5095717;28;19958;-88
2020/12/20 08:09:32;;;;;;;;;;;21.00;97.00;;;;;;5089708;28;19916;-90
2020/12/20 08:12:54;;;;;;;;;;;;;;;;;;;;;
2020/12/20 08:15:31;;;;;;;;;;;21.00;97.20;;;;;;5077208;28;19924;-86
2020/12/20 08:18:17;;;;;;;;;;;20.90;97.40;;;;;;5079956;28;19920;-88
2020/12/20 08:23:44;;;;;;;;;;;20.90;97.40;;;;;;5077712;28;19958;-87
2020/12/20 08:26:38;;;;;;;;;;;20.90;97.70;;;;;;5091145;28;19931;-86
2020/12/20 08:29:05;;;;;;;;;;;21.00;97.80;;;;;;5071964;28;19913;-90
2020/12/20 08:31:34;;;;;;;;;;;20.90;97.90;;;;;;5086670;28;20007;-83
2020/12/20 08:34:01;;;;;;;;;;;20.90;97.90;;;;;;5089612;28;20012;-85
2020/12/20 08:36:28;;;;;;;;;;;20.90;98.20;;;;;;5089669;28;20316;-84
2020/12/20 08:38:55;;;;;;;;;;;20.80;97.70;;;;;;5071906;28;19912;-87
2020/12/20 08:41:26;;;;;;;;;;;20.80;97.80;;;;;;5097474;28;19916;-84
2020/12/20 08:44:06;;;;;;;;;;;20.80;97.90;;;;;;5075406;28;19916;-85
2020/12/20 08:46:34;;;;;;;;;;;20.80;97.90;;;;;;5070155;28;19908;-85
2020/12/20 08:49:14;;;;;;;;;;;20.80;98.20;;;;;;5092596;28;19951;-85
2020/12/20 08:51:41;;;;;;;;;;;20.70;98.20;;;;;;5091448;28;20386;-85
2020/12/20 08:54:11;;;;;;;;;;;20.70;98.00;;;;;;5090104;28;19927;-86
2020/12/20 08:57:07;;;;;;;;;;;;;;;;;;;;;
2020/12/20 08:59:38;;;;;;;;;;;20.70;98.10;;;;;;5092865;28;19922;-90
2020/12/20 09:02:05;;;;;;;;;;;20.60;98.40;;;;;;5070580;28;19923;-85
2020/12/20 09:04:33;;;;;;;;;;;20.60;98.60;;;;;;5090787;27;19963;-85
2020/12/20 09:07:04;;;;;;;;;;;20.60;98.70;;;;;;5130295;27;19911;-85
2020/12/20 09:09:32;;;;;;;;;;;20.60;98.50;;;;;;5111658;28;19908;-86
2020/12/20 09:12:11;;;;;;;;;;;20.60;98.60;;;;;;5111294;28;19907;-85
2020/12/20 09:14:38;;;;;;;;;;;20.60;98.60;;;;;;5111824;28;20339;-86
2020/12/20 09:17:05;;;;;;;;;;;20.60;98.20;;;;;;5113265;28;19945;-85
2020/12/20 09:19:32;;;;;;;;;;;20.50;98.40;;;;;;5121540;28;19965;-86
2020/12/20 09:22:01;;;;;;;;;;;20.50;98.60;;;;;;5117738;28;19954;-85
2020/12/20 09:24:30;;;;;;;;;;;20.50;98.90;;;;;;5093587;28;19919;-89
2020/12/20 09:26:57;;;;;;;;;;;20.50;98.80;;;;;;5111967;28;20006;-82
2020/12/20 09:29:24;;;;;;;;;;;20.40;98.80;;;;;;5112591;28;20406;-82
2020/12/20 09:31:53;;;;;;;;;;;20.40;98.90;;;;;;5093962;28;19960;-83
2020/12/20 09:34:42;;;;;;;;;;;20.40;99.10;;;;;;5111073;28;20293;-83
2020/12/20 09:37:09;;;;;;;;;;;20.40;99.20;;;;;;5114433;28;20381;-84
2020/12/20 09:39:56;;;;;;;;;;;20.40;99.30;;;;;;5115530;28;19982;-80
2020/12/20 09:42:23;;;;;;;;;;;20.40;99.40;;;;;;5110443;28;20380;-82
2020/12/20 09:44:49;;;;;;;;;;;20.30;99.30;;;;;;5110188;28;19908;-81
2020/12/20 09:47:16;;;;;;;;;;;20.30;99.40;;;;;;5112679;28;19915;-80
2020/12/20 09:49:42;;;;;;;;;;;20.30;99.50;;;;;;5129993;28;19914;-77
2020/12/20 09:52:09;;;;;;;;;;;20.30;99.60;;;;;;5120430;27;20354;-78
2020/12/20 09:54:36;;;;;;;;;;;20.30;99.60;;;;;;5112529;28;19927;-83
2020/12/20 09:57:02;;;;;;;;;;;20.30;99.60;;;;;;5108628;28;19937;-83
2020/12/20 09:59:29;;;;;;;;;;;20.30;99.80;;;;;;5109396;28;20004;-79
2020/12/20 10:01:56;;;;;;;;;;;20.40;99.80;;;;;;5119565;28;20405;-79
2020/12/20 10:04:22;;;;;;;;;;;20.40;99.70;;;;;;5117104;28;19924;-79
2020/12/20 10:06:51;;;;;;;;;;;20.30;99.80;;;;;;5111030;28;19912;-80
2020/12/20 10:09:17;;;;;;;;;;;20.30;99.80;;;;;;5113978;28;19998;-84
2020/12/20 10:11:44;;;;;;;;;;;20.40;99.90;;;;;;5095046;28;20335;-80
2020/12/20 10:14:11;;;;;;;;;;;20.40;99.80;;;;;;5115412;27;19989;-83
2020/12/20 10:16:37;;;;;;;;;;;20.40;99.90;;;;;;5114343;28;19919;-81
2020/12/20 10:19:05;;;;;;;;;;;20.40;99.90;;;;;;5122025;27;19919;-83
2020/12/20 10:21:31;;;;;;;;;;;20.30;99.90;;;;;;5100783;28;20395;-84
2020/12/20 10:23:58;;;;;;;;;;;20.30;99.90;;;;;;5122649;27;19916;-83
2020/12/20 10:26:25;;;;;;;;;;;20.30;99.90;;;;;;5115499;27;19912;-81
2020/12/20 10:28:51;;;;;;;;;;;20.30;99.90;;;;;;5116274;27;19912;-81
2020/12/20 10:31:21;;;;;;;;;;;20.30;99.90;;;;;;5113312;27;19915;-86
2020/12/20 10:33:48;;;;;;;;;;;20.30;99.90;;;;;;5113634;28;20373;-80
2020/12/20 10:36:16;;;;;;;;;;;20.30;99.90;;;;;;5129826;27;20352;-81
2020/12/20 10:38:42;;;;;;;;;;;20.30;99.90;;;;;;5114099;27;19919;-82
2020/12/20 10:41:09;;;;;;;;;;;20.30;99.90;;;;;;5111062;28;20415;-86
2020/12/20 10:43:36;;;;;;;;;;;20.40;99.90;;;;;;5113193;27;19915;-82
2020/12/20 10:46:02;;;;;;;;;;;20.40;99.90;;;;;;5112595;28;19923;-84
2020/12/20 10:48:29;;;;;;;;;;;20.30;99.90;;;;;;5111700;27;19957;-82
2020/12/20 10:50:55;;;;;;;;;;;20.30;99.90;;;;;;5113977;27;20267;-81
2020/12/20 10:53:22;;;;;;;;;;;20.20;99.90;;;;;;5112104;27;19920;-83
2020/12/20 10:55:49;;;;;;;;;;;20.20;99.90;;;;;;5113876;27;19927;-83
2020/12/20 10:58:15;;;;;;;;;;;20.20;99.90;;;;;;5115554;27;19944;-82
2020/12/20 11:00:42;;;;;;;;;;;20.20;99.90;;;;;;5128493;27;20002;-83
2020/12/20 11:03:09;;;;;;;;;;;20.20;99.90;;;;;;5115126;27;20425;-80
2020/12/20 11:05:35;;;;;;;;;;;20.20;99.90;;;;;;5126981;27;19965;-80
2020/12/20 11:08:02;;;;;;;;;;;20.20;99.90;;;;;;5124111;27;19916;-81
2020/12/20 11:10:29;;;;;;;;;;;20.20;99.90;;;;;;5130297;27;19915;-82
2020/12/20 11:12:55;;;;;;;;;;;20.20;99.90;;;;;;5130131;27;19916;-83
2020/12/20 11:15:22;;;;;;;;;;;20.10;99.90;;;;;;5123112;27;20014;-83
2020/12/20 11:17:49;;;;;;;;;;;20.10;99.90;;;;;;5123076;27;19916;-85
2020/12/20 11:20:15;;;;;;;;;;;20.10;99.90;;;;;;5114835;28;19923;-83
2020/12/20 11:22:42;;;;;;;;;;;20.10;99.90;;;;;;5116253;27;19916;-82
2020/12/20 11:25:09;;;;;;;;;;;20.10;99.90;;;;;;5115869;27;19923;-80
2020/12/20 11:27:36;;;;;;;;;;;20.00;99.90;;;;;;5122884;27;19968;-81
2020/12/20 11:30:03;;;;;;;;;;;20.10;99.90;;;;;;5132974;27;19960;-82
2020/12/20 11:32:34;;;;;;;;;;;20.10;99.90;;;;;;5118057;27;19923;-82
2020/12/20 11:35:00;;;;;;;;;;;20.10;99.90;;;;;;5118934;27;20010;-85
2020/12/20 11:37:30;;;;;;;;;;;20.10;99.90;;;;;;5112588;27;19995;-83
2020/12/20 11:39:56;;;;;;;;;;;20.10;99.90;;;;;;5123972;27;19911;-81
2020/12/20 11:42:23;;;;;;;;;;;20.10;99.90;;;;;;5125739;27;20002;-79
2020/12/20 11:44:50;;;;;;;;;;;20.10;99.90;;;;;;5119576;27;19964;-80
2020/12/20 11:47:16;;;;;;;;;;;20.10;99.90;;;;;;5121230;27;19934;-77
2020/12/20 11:49:43;;;;;;;;;;;20.00;99.90;;;;;;5122642;27;19923;-79
2020/12/20 11:52:10;;;;;;;;;;;20.10;99.90;;;;;;5120656;27;20638;-77
2020/12/20 11:54:37;;;;;;;;;;;20.00;99.90;;;;;;5125105;27;19976;-79
2020/12/20 11:57:04;;;;;;;;;;;20.00;99.90;;;;;;5125094;27;19960;-80
2020/12/20 11:59:31;;;;;;;;;;;19.90;99.90;;;;;;5118200;27;19940;-81
2020/12/20 12:02:01;;;;;;;;;;;20.00;99.90;;;;;;5119260;27;20837;-82
2020/12/20 12:04:28;;;;;;;;;;;20.00;99.90;;;;;;5102815;27;20281;-83
2020/12/20 12:06:54;;;;;;;;;;;20.00;99.90;;;;;;5112219;28;19964;-87
2020/12/20 12:09:21;;;;;;;;;;;19.90;99.90;;;;;;5112609;28;19908;-79
2020/12/20 12:11:51;;;;;;;;;;;19.90;99.90;;;;;;5112320;28;19942;-80
2020/12/20 12:14:18;;;;;;;;;;;19.90;99.90;;;;;;5112262;28;19916;-77
2020/12/20 12:16:44;;;;;;;;;;;19.90;99.90;;;;;;5111886;28;19915;-77
2020/12/20 12:19:11;;;;;;;;;;;19.90;99.90;;;;;;5110406;28;19915;-79
2020/12/20 12:21:37;;;;;;;;;;;19.80;99.90;;;;;;5115086;27;20419;-81
2020/12/20 12:24:04;;;;;;;;;;;19.80;99.90;;;;;;5127114;27;19914;-78
2020/12/20 12:26:31;;;;;;;;;;;19.90;99.90;;;;;;5143676;27;19912;-79
2020/12/20 12:28:57;;;;;;;;;;;19.80;99.90;;;;;;5132302;27;19914;-79
2020/12/20 12:31:24;;;;;;;;;;;19.90;99.90;;;;;;5131733;27;19912;-78
2020/12/20 12:33:50;;;;;;;;;;;19.90;99.90;;;;;;5132223;27;19964;-77
2020/12/20 12:36:17;;;;;;;;;;;19.90;99.90;;;;;;5131570;27;19915;-77
2020/12/20 12:38:44;;;;;;;;;;;19.80;99.90;;;;;;5131896;27;19923;-77
2020/12/20 12:41:11;;;;;;;;;;;19.80;99.90;;;;;;5132301;27;19911;-77
2020/12/20 12:43:37;;;;;;;;;;;19.80;99.90;;;;;;5132388;27;19999;-78
2020/12/20 12:46:04;;;;;;;;;;;19.80;99.90;;;;;;5132144;27;19911;-80
2020/12/20 12:48:30;;;;;;;;;;;19.80;99.90;;;;;;5132087;27;20357;-77
2020/12/20 12:50:57;;;;;;;;;;;19.80;99.90;;;;;;5131579;27;19956;-79
2020/12/20 12:53:25;;;;;;;;;;;19.80;99.90;;;;;;5132002;27;19968;-80
2020/12/20 12:55:51;;;;;;;;;;;19.80;99.90;;;;;;5131887;27;19923;-80
2020/12/20 12:58:18;;;;;;;;;;;19.80;99.90;;;;;;5131751;27;19914;-82
2020/12/20 13:00:46;;;;;;;;;;;19.80;99.90;;;;;;5131323;27;19911;-78
2020/12/20 13:03:13;;;;;;;;;;;19.70;99.90;;;;;;5132359;27;19994;-77
2020/12/20 13:05:42;;;;;;;;;;;19.60;99.90;;;;;;5130598;27;20281;-77
2020/12/20 13:08:09;;;;;;;;;;;19.60;99.90;;;;;;5131467;27;20409;-77
2020/12/20 13:10:36;;;;;;;;;;;19.50;99.90;;;;;;5131738;27;19927;-79
2020/12/20 13:13:03;;;;;;;;;;;19.60;99.90;;;;;;5132129;28;19917;-78
2020/12/20 13:15:29;;;;;;;;;;;19.50;99.90;;;;;;5131422;28;20018;-78
2020/12/20 13:17:56;;;;;;;;;;;19.60;99.90;;;;;;5131780;27;20251;-77
2020/12/20 13:20:22;;;;;;;;;;;19.50;99.90;;;;;;5131791;28;19908;-78
2020/12/20 13:22:49;;;;;;;;;;;19.50;99.90;;;;;;5131714;27;19908;-78
2020/12/20 13:25:16;;;;;;;;;;;19.50;99.90;;;;;;5131507;27;19960;-81
2020/12/20 13:27:43;;;;;;;;;;;19.50;99.90;;;;;;5131337;28;20278;-78
2020/12/20 13:30:10;;;;;;;;;;;19.50;99.90;;;;;;5131474;27;20361;-78
2020/12/20 13:32:36;;;;;;;;;;;19.50;99.90;;;;;;5131931;28;19912;-78
2020/12/20 13:35:03;;;;;;;;;;;19.50;99.90;;;;;;5131734;28;19976;-77
2020/12/20 13:37:30;;;;;;;;;;;19.60;99.90;;;;;;5131211;27;20014;-82
2020/12/20 13:39:57;;;;;;;;;;;19.60;99.90;;;;;;5131190;28;20396;-79
2020/12/20 13:42:24;;;;;;;;;;;19.60;99.90;;;;;;5131602;27;19912;-79
2020/12/20 13:44:53;;;;;;;;;;;19.70;99.90;;;;;;5131742;27;19915;-78
2020/12/20 13:47:21;;;;;;;;;;;19.70;99.90;;;;;;5133160;27;20273;-78
2020/12/20 13:49:48;;;;;;;;;;;19.70;99.90;;;;;;5135779;27;20421;-80
2020/12/20 13:52:15;;;;;;;;;;;19.70;99.90;;;;;;5135131;27;20017;-78
2020/12/20 13:54:41;;;;;;;;;;;19.70;99.90;;;;;;5134975;27;19967;-78
2020/12/20 13:57:08;;;;;;;;;;;19.70;99.90;;;;;;5135329;27;19912;-79
2020/12/20 13:59:35;;;;;;;;;;;19.70;99.90;;;;;;5135326;27;19907;-77
2020/12/20 14:02:01;;;;;;;;;;;19.70;99.90;;;;;;5135481;27;19952;-79
2020/12/20 14:04:28;;;;;;;;;;;19.60;99.90;;;;;;5135013;27;19998;-81
2020/12/20 14:06:56;;;;;;;;;;;19.70;99.90;;;;;;5134772;27;19924;-78
2020/12/20 14:09:22;;;;;;;;;;;19.70;99.90;;;;;;5135051;27;20385;-82
2020/12/20 14:11:54;;;;;;;;;;;19.80;99.90;;;;;;5135031;27;19918;-79
2020/12/20 14:14:21;;;;;;;;;;;19.80;99.90;;;;;;5134531;27;20042;-77
2020/12/20 14:16:51;;;;;;;;;;;19.80;99.90;;;;;;5135229;27;20002;-78
2020/12/20 14:19:18;;;;;;;;;;;19.80;99.90;;;;;;5133755;27;19918;-78
2020/12/20 14:21:47;;;;;;;;;;;19.80;99.90;;;;;;5134579;27;20319;-80
2020/12/20 14:24:14;;;;;;;;;;;19.80;99.90;;;;;;5134983;27;19908;-78
2020/12/20 14:26:41;;;;;;;;;;;19.80;99.90;;;;;;5134484;27;19912;-78
2020/12/20 14:29:07;;;;;;;;;;;19.80;99.90;;;;;;5135153;27;19916;-77
2020/12/20 14:31:35;;;;;;;;;;;19.90;99.90;;;;;;5134488;27;19915;-77